sensor_id;sensor_type;location;lat;lon;timestamp;temperature;humidity
61591;DHT22;57639;52.410;-1.966;2023-04-16T00:00:09;13.10;53.40
61591;DHT22;57639;52.410;-1.966;2023-04-16T00:03:16;13.10;53.30
61591;DHT22;57639;52.410;-1.966;2023-04-16T00:06:23;13.10;53.30
61591;DHT22;57639;52.410;-1.966;2023-04-16T00:09:30;13.10;53.30
61591;DHT22;57639;52.410;-1.966;2023-04-16T00:12:36;13.10;53.30
61591;DHT22;57639;52.410;-1.966;2023-04-16T00:15:46;13.10;53.30
61591;DHT22;57639;52.410;-1.966;2023-04-16T00:18:52;13.10;53.30
61591;DHT22;57639;52.410;-1.966;2023-04-16T00:21:58;13.10;53.30
61591;DHT22;57639;52.410;-1.966;2023-04-16T00:25:05;13.10;53.30
61591;DHT22;57639;52.410;-1.966;2023-04-16T00:28:11;13.00;53.30
61591;DHT22;57639;52.410;-1.966;2023-04-16T00:31:25;13.00;53.30
61591;DHT22;57639;52.410;-1.966;2023-04-16T00:34:32;13.00;53.30
61591;DHT22;57639;52.410;-1.966;2023-04-16T00:37:38;13.10;53.30
61591;DHT22;57639;52.410;-1.966;2023-04-16T00:40:44;13.00;53.20
61591;DHT22;57639;52.410;-1.966;2023-04-16T00:43:51;13.10;53.20
61591;DHT22;57639;52.410;-1.966;2023-04-16T00:47:00;13.00;53.20
61591;DHT22;57639;52.410;-1.966;2023-04-16T00:50:07;13.00;53.30
61591;DHT22;57639;52.410;-1.966;2023-04-16T00:53:14;13.00;53.40
61591;DHT22;57639;52.410;-1.966;2023-04-16T00:56:21;12.90;53.40
61591;DHT22;57639;52.410;-1.966;2023-04-16T00:59:28;12.90;53.40
61591;DHT22;57639;52.410;-1.966;2023-04-16T01:02:38;13.00;53.40
61591;DHT22;57639;52.410;-1.966;2023-04-16T01:05:44;12.90;53.40
61591;DHT22;57639;52.410;-1.966;2023-04-16T01:08:51;12.90;53.40
61591;DHT22;57639;52.410;-1.966;2023-04-16T01:11:57;12.90;53.40
61591;DHT22;57639;52.410;-1.966;2023-04-16T01:15:05;13.00;53.40
61591;DHT22;57639;52.410;-1.966;2023-04-16T01:18:19;13.00;53.40
61591;DHT22;57639;52.410;-1.966;2023-04-16T01:21:28;13.00;53.30
61591;DHT22;57639;52.410;-1.966;2023-04-16T01:24:35;12.90;53.30
61591;DHT22;57639;52.410;-1.966;2023-04-16T01:27:41;12.90;53.40
61591;DHT22;57639;52.410;-1.966;2023-04-16T01:30:48;12.90;53.40
61591;DHT22;57639;52.410;-1.966;2023-04-16T01:33:54;12.90;53.40
61591;DHT22;57639;52.410;-1.966;2023-04-16T01:37:03;12.90;53.40
61591;DHT22;57639;52.410;-1.966;2023-04-16T01:40:10;12.90;53.30
61591;DHT22;57639;52.410;-1.966;2023-04-16T01:43:16;13.00;53.40
61591;DHT22;57639;52.410;-1.966;2023-04-16T01:46:26;12.90;53.30
61591;DHT22;57639;52.410;-1.966;2023-04-16T01:49:34;12.90;53.40
61591;DHT22;57639;52.410;-1.966;2023-04-16T01:52:43;12.90;53.40
61591;DHT22;57639;52.410;-1.966;2023-04-16T01:55:49;12.90;53.30
61591;DHT22;57639;52.410;-1.966;2023-04-16T01:58:55;12.90;53.20
61591;DHT22;57639;52.410;-1.966;2023-04-16T02:02:06;12.90;53.20
61591;DHT22;57639;52.410;-1.966;2023-04-16T02:05:12;12.90;53.10
61591;DHT22;57639;52.410;-1.966;2023-04-16T02:08:22;12.90;53.10
61591;DHT22;57639;52.410;-1.966;2023-04-16T02:11:28;13.00;53.10
61591;DHT22;57639;52.410;-1.966;2023-04-16T02:14:35;12.90;53.00
61591;DHT22;57639;52.410;-1.966;2023-04-16T02:17:41;13.00;53.00
61591;DHT22;57639;52.410;-1.966;2023-04-16T02:20:48;12.90;53.00
61591;DHT22;57639;52.410;-1.966;2023-04-16T02:23:57;12.90;53.00
61591;DHT22;57639;52.410;-1.966;2023-04-16T02:27:03;12.90;53.00
61591;DHT22;57639;52.410;-1.966;2023-04-16T02:30:10;12.90;52.90
61591;DHT22;57639;52.410;-1.966;2023-04-16T02:33:17;12.90;52.90
61591;DHT22;57639;52.410;-1.966;2023-04-16T02:36:24;12.90;52.90
61591;DHT22;57639;52.410;-1.966;2023-04-16T02:39:33;12.90;53.00
61591;DHT22;57639;52.410;-1.966;2023-04-16T02:42:39;12.90;53.00
61591;DHT22;57639;52.410;-1.966;2023-04-16T02:45:46;12.90;53.10
61591;DHT22;57639;52.410;-1.966;2023-04-16T02:48:52;12.90;52.90
61591;DHT22;57639;52.410;-1.966;2023-04-16T02:51:58;12.90;53.00
61591;DHT22;57639;52.410;-1.966;2023-04-16T02:55:09;12.90;53.00
61591;DHT22;57639;52.410;-1.966;2023-04-16T02:58:15;12.90;53.20
61591;DHT22;57639;52.410;-1.966;2023-04-16T03:01:21;12.90;53.10
61591;DHT22;57639;52.410;-1.966;2023-04-16T03:04:28;12.90;53.10
61591;DHT22;57639;52.410;-1.966;2023-04-16T03:07:34;13.00;52.90
61591;DHT22;57639;52.410;-1.966;2023-04-16T03:10:44;13.00;52.90
61591;DHT22;57639;52.410;-1.966;2023-04-16T03:13:50;12.90;53.10
61591;DHT22;57639;52.410;-1.966;2023-04-16T03:16:56;12.90;52.90
61591;DHT22;57639;52.410;-1.966;2023-04-16T03:20:03;12.90;53.00
61591;DHT22;57639;52.410;-1.966;2023-04-16T03:23:10;12.90;53.00
61591;DHT22;57639;52.410;-1.966;2023-04-16T03:26:19;12.90;53.00
61591;DHT22;57639;52.410;-1.966;2023-04-16T03:29:25;12.90;53.00
61591;DHT22;57639;52.410;-1.966;2023-04-16T03:32:32;12.80;53.00
61591;DHT22;57639;52.410;-1.966;2023-04-16T03:35:38;12.90;53.00
61591;DHT22;57639;52.410;-1.966;2023-04-16T03:38:44;12.80;53.00
61591;DHT22;57639;52.410;-1.966;2023-04-16T03:41:53;12.80;53.00
61591;DHT22;57639;52.410;-1.966;2023-04-16T03:44:59;12.80;53.10
61591;DHT22;57639;52.410;-1.966;2023-04-16T03:48:06;12.80;53.20
61591;DHT22;57639;52.410;-1.966;2023-04-16T03:51:12;12.80;53.20
61591;DHT22;57639;52.410;-1.966;2023-04-16T03:54:18;12.80;53.10
61591;DHT22;57639;52.410;-1.966;2023-04-16T03:57:27;12.80;53.10
61591;DHT22;57639;52.410;-1.966;2023-04-16T04:00:34;12.80;53.20
61591;DHT22;57639;52.410;-1.966;2023-04-16T04:03:40;12.80;53.10
61591;DHT22;57639;52.410;-1.966;2023-04-16T04:06:46;12.80;53.00
61591;DHT22;57639;52.410;-1.966;2023-04-16T04:09:53;12.80;53.00
61591;DHT22;57639;52.410;-1.966;2023-04-16T04:13:03;12.80;52.90
61591;DHT22;57639;52.410;-1.966;2023-04-16T04:16:09;12.90;52.80
61591;DHT22;57639;52.410;-1.966;2023-04-16T04:19:16;12.80;52.90
61591;DHT22;57639;52.410;-1.966;2023-04-16T04:22:22;12.80;52.90
61591;DHT22;57639;52.410;-1.966;2023-04-16T04:25:28;12.80;52.90
61591;DHT22;57639;52.410;-1.966;2023-04-16T04:28:38;12.80;52.90
61591;DHT22;57639;52.410;-1.966;2023-04-16T04:31:44;12.80;53.00
61591;DHT22;57639;52.410;-1.966;2023-04-16T04:34:50;12.80;53.10
61591;DHT22;57639;52.410;-1.966;2023-04-16T04:37:56;12.70;53.00
61591;DHT22;57639;52.410;-1.966;2023-04-16T04:41:03;12.70;53.00
61591;DHT22;57639;52.410;-1.966;2023-04-16T04:44:13;12.80;53.00
61591;DHT22;57639;52.410;-1.966;2023-04-16T04:47:19;12.80;53.00
61591;DHT22;57639;52.410;-1.966;2023-04-16T04:50:25;12.80;53.00
61591;DHT22;57639;52.410;-1.966;2023-04-16T04:53:32;12.70;53.00
61591;DHT22;57639;52.410;-1.966;2023-04-16T04:56:38;12.80;53.10
61591;DHT22;57639;52.410;-1.966;2023-04-16T04:59:50;12.70;53.20
61591;DHT22;57639;52.410;-1.966;2023-04-16T05:02:56;12.70;53.20
61591;DHT22;57639;52.410;-1.966;2023-04-16T05:06:02;12.80;53.10
61591;DHT22;57639;52.410;-1.966;2023-04-16T05:09:09;12.80;53.20
61591;DHT22;57639;52.410;-1.966;2023-04-16T05:12:16;12.80;53.20
61591;DHT22;57639;52.410;-1.966;2023-04-16T05:15:25;12.80;53.20
61591;DHT22;57639;52.410;-1.966;2023-04-16T05:18:31;12.80;53.20
61591;DHT22;57639;52.410;-1.966;2023-04-16T05:21:37;12.70;53.30
61591;DHT22;57639;52.410;-1.966;2023-04-16T05:24:44;12.70;53.20
61591;DHT22;57639;52.410;-1.966;2023-04-16T05:27:50;12.70;53.10
61591;DHT22;57639;52.410;-1.966;2023-04-16T05:30:59;12.70;53.30
61591;DHT22;57639;52.410;-1.966;2023-04-16T05:34:05;12.70;53.20
61591;DHT22;57639;52.410;-1.966;2023-04-16T05:37:11;12.70;53.30
61591;DHT22;57639;52.410;-1.966;2023-04-16T05:40:18;12.70;53.40
61591;DHT22;57639;52.410;-1.966;2023-04-16T05:43:24;12.70;53.50
61591;DHT22;57639;52.410;-1.966;2023-04-16T05:46:33;12.70;53.40
61591;DHT22;57639;52.410;-1.966;2023-04-16T05:49:39;12.60;53.50
61591;DHT22;57639;52.410;-1.966;2023-04-16T05:52:46;12.60;53.60
61591;DHT22;57639;52.410;-1.966;2023-04-16T05:55:55;12.60;53.50
61591;DHT22;57639;52.410;-1.966;2023-04-16T05:59:01;12.70;53.50
61591;DHT22;57639;52.410;-1.966;2023-04-16T06:02:10;12.70;53.40
61591;DHT22;57639;52.410;-1.966;2023-04-16T06:05:17;12.70;53.40
61591;DHT22;57639;52.410;-1.966;2023-04-16T06:08:23;12.70;53.30
61591;DHT22;57639;52.410;-1.966;2023-04-16T06:11:29;12.70;53.40
61591;DHT22;57639;52.410;-1.966;2023-04-16T06:14:36;12.60;53.30
61591;DHT22;57639;52.410;-1.966;2023-04-16T06:17:45;12.70;53.20
61591;DHT22;57639;52.410;-1.966;2023-04-16T06:20:51;12.70;53.20
61591;DHT22;57639;52.410;-1.966;2023-04-16T06:23:58;12.60;53.30
61591;DHT22;57639;52.410;-1.966;2023-04-16T06:27:04;12.60;53.20
61591;DHT22;57639;52.410;-1.966;2023-04-16T06:30:11;12.70;53.20
61591;DHT22;57639;52.410;-1.966;2023-04-16T06:33:21;12.70;53.30
61591;DHT22;57639;52.410;-1.966;2023-04-16T06:36:27;12.60;53.30
61591;DHT22;57639;52.410;-1.966;2023-04-16T06:39:34;12.70;53.20
61591;DHT22;57639;52.410;-1.966;2023-04-16T06:42:40;12.60;53.40
61591;DHT22;57639;52.410;-1.966;2023-04-16T06:45:47;12.60;53.60
61591;DHT22;57639;52.410;-1.966;2023-04-16T06:48:56;12.60;53.50
61591;DHT22;57639;52.410;-1.966;2023-04-16T06:52:02;12.60;53.50
61591;DHT22;57639;52.410;-1.966;2023-04-16T06:55:09;12.60;53.50
61591;DHT22;57639;52.410;-1.966;2023-04-16T06:58:15;12.60;53.40
61591;DHT22;57639;52.410;-1.966;2023-04-16T07:01:21;12.70;53.50
61591;DHT22;57639;52.410;-1.966;2023-04-16T07:04:30;12.70;53.40
61591;DHT22;57639;52.410;-1.966;2023-04-16T07:07:37;12.70;53.40
61591;DHT22;57639;52.410;-1.966;2023-04-16T07:10:43;12.70;53.50
61591;DHT22;57639;52.410;-1.966;2023-04-16T07:13:49;12.60;53.60
61591;DHT22;57639;52.410;-1.966;2023-04-16T07:16:56;12.60;53.40
61591;DHT22;57639;52.410;-1.966;2023-04-16T07:20:06;12.60;53.60
61591;DHT22;57639;52.410;-1.966;2023-04-16T07:23:13;12.60;53.70
61591;DHT22;57639;52.410;-1.966;2023-04-16T07:26:19;12.60;53.60
61591;DHT22;57639;52.410;-1.966;2023-04-16T07:29:25;12.60;53.60
61591;DHT22;57639;52.410;-1.966;2023-04-16T07:32:31;12.60;53.40
61591;DHT22;57639;52.410;-1.966;2023-04-16T07:35:40;12.70;53.40
61591;DHT22;57639;52.410;-1.966;2023-04-16T07:38:47;12.70;53.30
61591;DHT22;57639;52.410;-1.966;2023-04-16T07:41:53;12.70;53.30
61591;DHT22;57639;52.410;-1.966;2023-04-16T07:44:59;12.70;53.40
61591;DHT22;57639;52.410;-1.966;2023-04-16T07:48:05;12.70;53.40
61591;DHT22;57639;52.410;-1.966;2023-04-16T07:51:15;12.60;53.50
61591;DHT22;57639;52.410;-1.966;2023-04-16T07:54:21;12.60;53.60
61591;DHT22;57639;52.410;-1.966;2023-04-16T07:57:27;12.70;53.50
61591;DHT22;57639;52.410;-1.966;2023-04-16T08:00:34;12.70;53.70
61591;DHT22;57639;52.410;-1.966;2023-04-16T08:03:41;12.70;53.50
61591;DHT22;57639;52.410;-1.966;2023-04-16T08:06:50;12.70;53.60
61591;DHT22;57639;52.410;-1.966;2023-04-16T08:09:57;12.60;53.60
61591;DHT22;57639;52.410;-1.966;2023-04-16T08:13:03;12.60;53.60
61591;DHT22;57639;52.410;-1.966;2023-04-16T08:16:09;12.60;53.70
61591;DHT22;57639;52.410;-1.966;2023-04-16T08:19:16;12.60;53.70
61591;DHT22;57639;52.410;-1.966;2023-04-16T08:22:25;12.60;53.70
61591;DHT22;57639;52.410;-1.966;2023-04-16T08:25:31;12.60;53.70
61591;DHT22;57639;52.410;-1.966;2023-04-16T08:28:37;12.60;53.80
61591;DHT22;57639;52.410;-1.966;2023-04-16T08:31:44;12.60;53.90
61591;DHT22;57639;52.410;-1.966;2023-04-16T08:34:50;12.60;53.80
61591;DHT22;57639;52.410;-1.966;2023-04-16T08:38:01;12.60;53.80
61591;DHT22;57639;52.410;-1.966;2023-04-16T08:41:11;12.60;53.80
61591;DHT22;57639;52.410;-1.966;2023-04-16T08:44:22;12.60;53.90
61591;DHT22;57639;52.410;-1.966;2023-04-16T08:47:32;12.60;53.90
61591;DHT22;57639;52.410;-1.966;2023-04-16T08:50:40;12.60;53.90
61591;DHT22;57639;52.410;-1.966;2023-04-16T08:53:52;12.60;53.90
61591;DHT22;57639;52.410;-1.966;2023-04-16T08:56:58;12.60;53.90
61591;DHT22;57639;52.410;-1.966;2023-04-16T09:00:07;12.60;53.90
61591;DHT22;57639;52.410;-1.966;2023-04-16T09:03:14;12.60;53.90
61591;DHT22;57639;52.410;-1.966;2023-04-16T09:06:21;12.60;53.90
61591;DHT22;57639;52.410;-1.966;2023-04-16T09:09:32;12.60;53.90
61591;DHT22;57639;52.410;-1.966;2023-04-16T09:12:40;12.60;53.90
61591;DHT22;57639;52.410;-1.966;2023-04-16T09:15:46;12.60;53.90
61591;DHT22;57639;52.410;-1.966;2023-04-16T09:18:56;12.70;53.90
61591;DHT22;57639;52.410;-1.966;2023-04-16T09:22:03;12.70;53.80
61591;DHT22;57639;52.410;-1.966;2023-04-16T09:25:12;12.80;53.70
61591;DHT22;57639;52.410;-1.966;2023-04-16T09:28:43;12.80;53.70
61591;DHT22;57639;52.410;-1.966;2023-04-16T09:32:00;12.80;53.70
61591;DHT22;57639;52.410;-1.966;2023-04-16T09:35:07;12.80;53.80
61591;DHT22;57639;52.410;-1.966;2023-04-16T09:38:14;12.80;53.80
61591;DHT22;57639;52.410;-1.966;2023-04-16T09:41:27;12.80;53.80
61591;DHT22;57639;52.410;-1.966;2023-04-16T09:44:34;12.80;53.90
61591;DHT22;57639;52.410;-1.966;2023-04-16T09:47:43;12.80;53.80
61591;DHT22;57639;52.410;-1.966;2023-04-16T09:50:50;12.80;53.90
61591;DHT22;57639;52.410;-1.966;2023-04-16T09:53:57;12.80;53.90
61591;DHT22;57639;52.410;-1.966;2023-04-16T09:57:06;12.80;53.90
61591;DHT22;57639;52.410;-1.966;2023-04-16T10:00:17;12.80;53.90
61591;DHT22;57639;52.410;-1.966;2023-04-16T10:03:30;12.80;54.00
61591;DHT22;57639;52.410;-1.966;2023-04-16T10:06:40;12.80;54.00
61591;DHT22;57639;52.410;-1.966;2023-04-16T10:09:48;12.80;54.00
61591;DHT22;57639;52.410;-1.966;2023-04-16T10:12:57;12.80;54.00
61591;DHT22;57639;52.410;-1.966;2023-04-16T10:16:06;12.80;54.10
61591;DHT22;57639;52.410;-1.966;2023-04-16T10:19:13;12.80;54.20
61591;DHT22;57639;52.410;-1.966;2023-04-16T10:22:19;12.80;54.20
61591;DHT22;57639;52.410;-1.966;2023-04-16T10:25:27;12.80;54.30
61591;DHT22;57639;52.410;-1.966;2023-04-16T10:28:36;12.80;54.30
61591;DHT22;57639;52.410;-1.966;2023-04-16T10:31:43;12.80;54.30
61591;DHT22;57639;52.410;-1.966;2023-04-16T10:34:50;12.80;54.30
61591;DHT22;57639;52.410;-1.966;2023-04-16T10:37:58;12.80;54.40
61591;DHT22;57639;52.410;-1.966;2023-04-16T10:41:24;12.70;54.40
61591;DHT22;57639;52.410;-1.966;2023-04-16T10:44:34;12.70;54.40
61591;DHT22;57639;52.410;-1.966;2023-04-16T10:47:41;12.70;54.40
61591;DHT22;57639;52.410;-1.966;2023-04-16T10:50:56;12.70;54.40
61591;DHT22;57639;52.410;-1.966;2023-04-16T10:54:18;12.80;54.40
61591;DHT22;57639;52.410;-1.966;2023-04-16T10:57:28;12.80;54.50
61591;DHT22;57639;52.410;-1.966;2023-04-16T11:00:53;12.70;54.50
61591;DHT22;57639;52.410;-1.966;2023-04-16T11:04:00;12.70;54.50
61591;DHT22;57639;52.410;-1.966;2023-04-16T11:07:14;12.80;54.50
61591;DHT22;57639;52.410;-1.966;2023-04-16T11:10:20;12.70;54.50
61591;DHT22;57639;52.410;-1.966;2023-04-16T11:13:27;12.70;54.60
61591;DHT22;57639;52.410;-1.966;2023-04-16T11:16:39;12.70;54.60
61591;DHT22;57639;52.410;-1.966;2023-04-16T11:19:46;12.70;54.50
61591;DHT22;57639;52.410;-1.966;2023-04-16T11:22:54;12.80;54.50
61591;DHT22;57639;52.410;-1.966;2023-04-16T11:26:00;12.80;54.50
61591;DHT22;57639;52.410;-1.966;2023-04-16T11:29:13;12.80;54.60
61591;DHT22;57639;52.410;-1.966;2023-04-16T11:32:23;12.80;54.60
61591;DHT22;57639;52.410;-1.966;2023-04-16T11:35:29;12.80;54.60
61591;DHT22;57639;52.410;-1.966;2023-04-16T11:38:36;12.80;54.50
61591;DHT22;57639;52.410;-1.966;2023-04-16T11:41:43;12.80;54.50
61591;DHT22;57639;52.410;-1.966;2023-04-16T11:44:54;12.90;54.50
61591;DHT22;57639;52.410;-1.966;2023-04-16T11:48:05;12.90;54.50
61591;DHT22;57639;52.410;-1.966;2023-04-16T11:51:11;12.80;54.50
61591;DHT22;57639;52.410;-1.966;2023-04-16T11:54:18;12.80;54.40
61591;DHT22;57639;52.410;-1.966;2023-04-16T11:57:26;12.90;54.40
61591;DHT22;57639;52.410;-1.966;2023-04-16T12:00:34;13.00;54.40
61591;DHT22;57639;52.410;-1.966;2023-04-16T12:03:45;12.90;54.40
61591;DHT22;57639;52.410;-1.966;2023-04-16T12:07:05;12.90;54.40
61591;DHT22;57639;52.410;-1.966;2023-04-16T12:10:11;12.90;54.40
61591;DHT22;57639;52.410;-1.966;2023-04-16T12:13:17;13.00;54.40
61591;DHT22;57639;52.410;-1.966;2023-04-16T12:16:24;13.00;54.40
61591;DHT22;57639;52.410;-1.966;2023-04-16T12:19:47;13.00;54.40
61591;DHT22;57639;52.410;-1.966;2023-04-16T12:22:53;13.00;54.40
61591;DHT22;57639;52.410;-1.966;2023-04-16T12:26:06;13.00;54.50
61591;DHT22;57639;52.410;-1.966;2023-04-16T12:29:18;13.00;54.60
61591;DHT22;57639;52.410;-1.966;2023-04-16T12:32:25;13.00;54.50
61591;DHT22;57639;52.410;-1.966;2023-04-16T12:35:34;13.00;54.50
61591;DHT22;57639;52.410;-1.966;2023-04-16T12:38:41;13.00;54.60
61591;DHT22;57639;52.410;-1.966;2023-04-16T12:41:47;12.90;54.60
61591;DHT22;57639;52.410;-1.966;2023-04-16T12:44:53;13.00;54.60
61591;DHT22;57639;52.410;-1.966;2023-04-16T12:48:00;13.00;54.60
61591;DHT22;57639;52.410;-1.966;2023-04-16T12:51:09;13.00;54.70
61591;DHT22;57639;52.410;-1.966;2023-04-16T12:54:15;13.00;54.70
61591;DHT22;57639;52.410;-1.966;2023-04-16T12:57:21;13.00;54.70
61591;DHT22;57639;52.410;-1.966;2023-04-16T13:00:30;13.00;54.80
61591;DHT22;57639;52.410;-1.966;2023-04-16T13:03:37;13.00;54.70
61591;DHT22;57639;52.410;-1.966;2023-04-16T13:06:46;13.00;54.80
61591;DHT22;57639;52.410;-1.966;2023-04-16T13:09:52;13.00;54.60
61591;DHT22;57639;52.410;-1.966;2023-04-16T13:12:58;13.00;54.60
61591;DHT22;57639;52.410;-1.966;2023-04-16T13:16:04;13.10;54.70
61591;DHT22;57639;52.410;-1.966;2023-04-16T13:19:11;13.00;54.70
61591;DHT22;57639;52.410;-1.966;2023-04-16T13:22:20;13.00;54.70
61591;DHT22;57639;52.410;-1.966;2023-04-16T13:25:27;13.00;54.80
61591;DHT22;57639;52.410;-1.966;2023-04-16T13:28:33;13.00;54.90
61591;DHT22;57639;52.410;-1.966;2023-04-16T13:31:39;13.00;55.00
61591;DHT22;57639;52.410;-1.966;2023-04-16T13:34:46;13.00;55.00
61591;DHT22;57639;52.410;-1.966;2023-04-16T13:37:55;13.00;55.00
61591;DHT22;57639;52.410;-1.966;2023-04-16T13:41:03;13.00;55.00
61591;DHT22;57639;52.410;-1.966;2023-04-16T13:44:09;13.00;55.20
61591;DHT22;57639;52.410;-1.966;2023-04-16T13:47:16;13.10;55.10
61591;DHT22;57639;52.410;-1.966;2023-04-16T13:50:22;13.10;55.10
61591;DHT22;57639;52.410;-1.966;2023-04-16T13:53:31;13.20;54.90
61591;DHT22;57639;52.410;-1.966;2023-04-16T13:56:37;13.20;54.90
61591;DHT22;57639;52.410;-1.966;2023-04-16T13:59:44;13.30;54.80
61591;DHT22;57639;52.410;-1.966;2023-04-16T14:02:51;13.30;54.90
61591;DHT22;57639;52.410;-1.966;2023-04-16T14:05:57;13.30;54.80
61591;DHT22;57639;52.410;-1.966;2023-04-16T14:09:06;13.30;54.80
61591;DHT22;57639;52.410;-1.966;2023-04-16T14:12:16;13.30;54.80
61591;DHT22;57639;52.410;-1.966;2023-04-16T14:15:22;13.30;54.70
61591;DHT22;57639;52.410;-1.966;2023-04-16T14:18:29;13.30;54.70
61591;DHT22;57639;52.410;-1.966;2023-04-16T14:21:35;13.30;54.80
61591;DHT22;57639;52.410;-1.966;2023-04-16T14:24:45;13.40;54.80
61591;DHT22;57639;52.410;-1.966;2023-04-16T14:27:51;13.30;54.80
61591;DHT22;57639;52.410;-1.966;2023-04-16T14:30:59;13.30;54.70
61591;DHT22;57639;52.410;-1.966;2023-04-16T14:34:05;13.30;54.90
61591;DHT22;57639;52.410;-1.966;2023-04-16T14:37:14;13.20;55.10
61591;DHT22;57639;52.410;-1.966;2023-04-16T14:40:23;13.20;55.10
61591;DHT22;57639;52.410;-1.966;2023-04-16T14:43:30;13.20;55.30
61591;DHT22;57639;52.410;-1.966;2023-04-16T14:46:36;13.20;55.30
61591;DHT22;57639;52.410;-1.966;2023-04-16T14:49:46;13.20;55.50
61591;DHT22;57639;52.410;-1.966;2023-04-16T14:52:52;13.20;55.30
61591;DHT22;57639;52.410;-1.966;2023-04-16T14:56:04;13.20;55.30
61591;DHT22;57639;52.410;-1.966;2023-04-16T14:59:10;13.20;55.30
61591;DHT22;57639;52.410;-1.966;2023-04-16T15:02:17;13.20;55.30
61591;DHT22;57639;52.410;-1.966;2023-04-16T15:05:23;13.20;55.30
61591;DHT22;57639;52.410;-1.966;2023-04-16T15:08:33;13.20;55.40
61591;DHT22;57639;52.410;-1.966;2023-04-16T15:11:42;13.10;55.40
61591;DHT22;57639;52.410;-1.966;2023-04-16T15:14:49;13.20;55.50
61591;DHT22;57639;52.410;-1.966;2023-04-16T15:17:57;13.10;55.50
61591;DHT22;57639;52.410;-1.966;2023-04-16T15:21:03;13.10;55.50
61591;DHT22;57639;52.410;-1.966;2023-04-16T15:24:10;13.20;55.70
61591;DHT22;57639;52.410;-1.966;2023-04-16T15:27:19;13.20;55.90
61591;DHT22;57639;52.410;-1.966;2023-04-16T15:30:25;13.10;55.90
61591;DHT22;57639;52.410;-1.966;2023-04-16T15:33:31;13.10;56.30
61591;DHT22;57639;52.410;-1.966;2023-04-16T15:36:38;13.10;56.50
61591;DHT22;57639;52.410;-1.966;2023-04-16T15:39:44;13.10;56.50
61591;DHT22;57639;52.410;-1.966;2023-04-16T15:42:54;13.10;56.40
61591;DHT22;57639;52.410;-1.966;2023-04-16T15:46:00;13.10;56.60
61591;DHT22;57639;52.410;-1.966;2023-04-16T15:49:07;13.10;56.50
61591;DHT22;57639;52.410;-1.966;2023-04-16T15:52:14;13.10;56.80
61591;DHT22;57639;52.410;-1.966;2023-04-16T15:55:21;13.10;57.00
61591;DHT22;57639;52.410;-1.966;2023-04-16T15:58:31;13.10;57.00
61591;DHT22;57639;52.410;-1.966;2023-04-16T16:01:37;13.10;56.70
61591;DHT22;57639;52.410;-1.966;2023-04-16T16:04:43;13.20;56.40
61591;DHT22;57639;52.410;-1.966;2023-04-16T16:07:50;13.30;56.30
61591;DHT22;57639;52.410;-1.966;2023-04-16T16:10:57;13.30;56.20
61591;DHT22;57639;52.410;-1.966;2023-04-16T16:14:06;13.30;56.10
61591;DHT22;57639;52.410;-1.966;2023-04-16T16:17:12;13.40;55.90
61591;DHT22;57639;52.410;-1.966;2023-04-16T16:20:19;13.40;56.30
61591;DHT22;57639;52.410;-1.966;2023-04-16T16:23:26;13.30;56.20
61591;DHT22;57639;52.410;-1.966;2023-04-16T16:26:32;13.40;56.10
61591;DHT22;57639;52.410;-1.966;2023-04-16T16:29:41;13.40;56.00
61591;DHT22;57639;52.410;-1.966;2023-04-16T16:32:47;13.40;56.10
61591;DHT22;57639;52.410;-1.966;2023-04-16T16:35:54;13.30;56.10
61591;DHT22;57639;52.410;-1.966;2023-04-16T16:39:00;13.30;56.10
61591;DHT22;57639;52.410;-1.966;2023-04-16T16:42:06;13.30;56.20
61591;DHT22;57639;52.410;-1.966;2023-04-16T16:45:17;13.30;56.20
61591;DHT22;57639;52.410;-1.966;2023-04-16T16:48:23;13.30;56.30
61591;DHT22;57639;52.410;-1.966;2023-04-16T16:51:29;13.30;56.20
61591;DHT22;57639;52.410;-1.966;2023-04-16T16:54:36;13.30;56.30
61591;DHT22;57639;52.410;-1.966;2023-04-16T16:57:42;13.30;56.40
61591;DHT22;57639;52.410;-1.966;2023-04-16T17:00:51;13.30;56.40
61591;DHT22;57639;52.410;-1.966;2023-04-16T17:03:58;13.30;56.40
61591;DHT22;57639;52.410;-1.966;2023-04-16T17:07:04;13.30;56.40
61591;DHT22;57639;52.410;-1.966;2023-04-16T17:10:11;13.30;56.40
61591;DHT22;57639;52.410;-1.966;2023-04-16T17:13:22;13.20;56.60
61591;DHT22;57639;52.410;-1.966;2023-04-16T17:16:31;13.20;56.60
61591;DHT22;57639;52.410;-1.966;2023-04-16T17:19:37;13.20;56.60
61591;DHT22;57639;52.410;-1.966;2023-04-16T17:22:43;13.20;56.60
61591;DHT22;57639;52.410;-1.966;2023-04-16T17:25:50;13.20;56.50
61591;DHT22;57639;52.410;-1.966;2023-04-16T17:28:56;13.30;56.40
61591;DHT22;57639;52.410;-1.966;2023-04-16T17:32:05;13.20;56.50
61591;DHT22;57639;52.410;-1.966;2023-04-16T17:35:11;13.20;56.70
61591;DHT22;57639;52.410;-1.966;2023-04-16T17:38:17;13.10;56.80
61591;DHT22;57639;52.410;-1.966;2023-04-16T17:41:24;13.10;56.80
61591;DHT22;57639;52.410;-1.966;2023-04-16T17:44:30;13.20;56.70
61591;DHT22;57639;52.410;-1.966;2023-04-16T17:47:39;13.10;56.70
61591;DHT22;57639;52.410;-1.966;2023-04-16T17:50:46;13.10;56.60
61591;DHT22;57639;52.410;-1.966;2023-04-16T17:53:52;13.10;56.60
61591;DHT22;57639;52.410;-1.966;2023-04-16T17:56:58;13.20;56.50
61591;DHT22;57639;52.410;-1.966;2023-04-16T18:00:06;13.20;56.30
61591;DHT22;57639;52.410;-1.966;2023-04-16T18:03:19;13.20;56.10
61591;DHT22;57639;52.410;-1.966;2023-04-16T18:06:25;13.20;56.40
61591;DHT22;57639;52.410;-1.966;2023-04-16T18:09:32;13.10;56.50
61591;DHT22;57639;52.410;-1.966;2023-04-16T18:12:38;13.10;56.40
61591;DHT22;57639;52.410;-1.966;2023-04-16T18:15:44;13.20;56.30
61591;DHT22;57639;52.410;-1.966;2023-04-16T18:18:54;13.30;56.10
61591;DHT22;57639;52.410;-1.966;2023-04-16T18:22:00;13.30;56.00
61591;DHT22;57639;52.410;-1.966;2023-04-16T18:25:06;13.20;56.00
61591;DHT22;57639;52.410;-1.966;2023-04-16T18:28:13;13.20;56.00
61591;DHT22;57639;52.410;-1.966;2023-04-16T18:31:19;13.20;56.10
61591;DHT22;57639;52.410;-1.966;2023-04-16T18:34:28;13.20;56.10
61591;DHT22;57639;52.410;-1.966;2023-04-16T18:37:35;13.20;56.10
61591;DHT22;57639;52.410;-1.966;2023-04-16T18:40:42;13.10;56.10
61591;DHT22;57639;52.410;-1.966;2023-04-16T18:43:49;13.20;56.10
61591;DHT22;57639;52.410;-1.966;2023-04-16T18:46:55;13.10;56.00
61591;DHT22;57639;52.410;-1.966;2023-04-16T18:50:06;13.10;56.00
61591;DHT22;57639;52.410;-1.966;2023-04-16T18:53:12;13.20;56.00
61591;DHT22;57639;52.410;-1.966;2023-04-16T18:56:19;13.20;56.00
61591;DHT22;57639;52.410;-1.966;2023-04-16T18:59:25;13.20;55.90
61591;DHT22;57639;52.410;-1.966;2023-04-16T19:02:34;13.20;56.00
61591;DHT22;57639;52.410;-1.966;2023-04-16T19:05:44;13.20;55.90
61591;DHT22;57639;52.410;-1.966;2023-04-16T19:08:50;13.20;55.90
61591;DHT22;57639;52.410;-1.966;2023-04-16T19:11:56;13.30;55.90
61591;DHT22;57639;52.410;-1.966;2023-04-16T19:15:04;13.20;55.80
61591;DHT22;57639;52.410;-1.966;2023-04-16T19:18:10;13.20;55.80
61591;DHT22;57639;52.410;-1.966;2023-04-16T19:21:19;13.20;55.80
61591;DHT22;57639;52.410;-1.966;2023-04-16T19:24:26;13.20;55.80